Time;durP1;ratioP1;P1;durP2;ratioP2;P2;SDS_P1;SDS_P2;PMS_P1;PMS_P2;Temp;Humidity;BMP_temperature;BMP_pressure;BME280_temperature;BME280_humidity;BME280_pressure;Samples;Min_cycle;Max_cycle;Signal;HPM_P1;HPM_P2
2023/03/26 00:01:06;;;;;;;3.47;2.80;;;14.50;57.10;;;;;;5095149;28;20416;-79
2023/03/26 00:03:33;;;;;;;3.85;3.00;;;14.50;57.20;;;;;;5095122;28;20024;-79
2023/03/26 00:06:06;;;;;;;3.75;3.10;;;14.50;57.20;;;;;;5077842;28;20076;-79
2023/03/26 00:08:34;;;;;;;5.53;3.13;;;14.50;57.20;;;;;;5095351;28;20032;-79
2023/03/26 00:11:00;;;;;;;3.33;2.90;;;14.50;57.30;;;;;;5095237;28;20028;-79
2023/03/26 00:13:26;;;;;;;4.05;3.10;;;14.50;57.40;;;;;;5095150;28;20139;-78
2023/03/26 00:15:51;;;;;;;4.63;3.35;;;14.50;57.40;;;;;;5095107;28;20501;-79
2023/03/26 00:18:23;;;;;;;3.00;2.70;;;14.40;57.50;;;;;;5095143;28;20055;-79
2023/03/26 00:20:52;;;;;;;3.83;3.22;;;14.50;57.50;;;;;;5095044;28;20024;-78
2023/03/26 00:23:17;;;;;;;3.78;3.22;;;14.40;57.50;;;;;;5094970;28;20028;-79
2023/03/26 00:25:44;;;;;;;3.83;3.38;;;14.40;57.60;;;;;;5094947;28;20039;-80
2023/03/26 00:28:10;;;;;;;4.03;3.40;;;14.50;57.70;;;;;;5094836;28;20149;-79
2023/03/26 00:30:36;;;;;;;3.67;3.20;;;14.50;57.70;;;;;;5094653;28;20107;-80
2023/03/26 00:33:02;;;;;;;3.38;3.05;;;14.40;57.60;;;;;;5094714;28;20385;-80
2023/03/26 00:35:28;;;;;;;4.05;3.50;;;14.40;57.70;;;;;;5094342;28;20071;-80
2023/03/26 00:37:54;;;;;;;3.70;3.25;;;14.50;57.80;;;;;;5094658;28;20032;-78
2023/03/26 00:40:22;;;;;;;4.20;3.17;;;14.40;57.70;;;;;;5077108;28;20043;-80
2023/03/26 00:42:47;;;;;;;4.05;3.08;;;14.50;57.90;;;;;;5096276;28;20028;-79
2023/03/26 00:45:13;;;;;;;4.30;3.33;;;14.50;57.90;;;;;;5096387;28;20385;-80
2023/03/26 00:47:39;;;;;;;5.40;3.25;;;14.40;57.90;;;;;;5094825;28;20380;-79
2023/03/26 00:50:07;;;;;;;3.50;3.20;;;14.40;58.00;;;;;;5094652;28;20064;-78
2023/03/26 00:52:34;;;;;;;4.18;3.15;;;14.40;58.10;;;;;;5094458;28;20083;-79
2023/03/26 00:55:00;;;;;;;3.67;3.17;;;14.40;58.10;;;;;;5094380;28;20032;-79
2023/03/26 00:57:28;;;;;;;3.70;3.20;;;14.40;58.20;;;;;;5094153;28;20415;-79
2023/03/26 00:59:55;;;;;;;4.95;3.65;;;14.40;58.30;;;;;;5093843;28;20031;-79
2023/03/26 01:02:21;;;;;;;3.67;3.28;;;14.40;58.30;;;;;;5094538;28;20501;-79
2023/03/26 01:04:54;;;;;;;3.92;3.30;;;14.40;58.30;;;;;;5094358;28;20123;-78
2023/03/26 01:07:27;;;;;;;3.50;3.15;;;14.40;58.40;;;;;;5093951;28;20028;-79
2023/03/26 01:09:56;;;;;;;3.65;3.03;;;14.40;58.60;;;;;;5094212;28;20075;-79
2023/03/26 01:12:30;;;;;;;6.15;3.60;;;14.40;58.60;;;;;;5093805;28;20125;-78
2023/03/26 01:14:59;;;;;;;;;;;14.40;58.60;;;;;;5094413;28;20020;-79
2023/03/26 01:17:32;;;;;;;3.20;2.60;;;14.40;59.60;;;;;;5075684;28;19904;-79
2023/03/26 01:20:12;;;;;;;3.72;2.92;;;14.40;58.60;;;;;;5093714;28;20039;-80
2023/03/26 01:22:44;;;;;;;3.03;2.72;;;14.40;58.80;;;;;;5093661;28;20028;-79
2023/03/26 01:25:09;;;;;;;3.42;3.08;;;14.40;58.90;;;;;;5094673;28;20122;-79
2023/03/26 01:28:07;;;;;;;3.78;3.30;;;14.40;58.90;;;;;;5093783;28;20115;-79
2023/03/26 01:30:41;;;;;;;3.97;3.03;;;14.40;59.50;;;;;;5077625;28;20454;-80
2023/03/26 01:33:28;;;;;;;3.65;3.30;;;14.40;59.10;;;;;;5093573;28;20031;-80
2023/03/26 01:36:27;;;;;;;3.35;2.90;;;14.40;59.10;;;;;;5093543;28;20504;-79
2023/03/26 01:39:17;;;;;;;4.53;2.88;;;14.40;59.30;;;;;;5075459;28;20036;-80
2023/03/26 01:41:59;;;;;;;3.20;2.90;;;14.40;59.80;;;;;;5093536;28;20055;-78
2023/03/26 01:44:37;;;;;;;3.45;2.75;;;14.30;59.50;;;;;;5093427;28;20028;-79
2023/03/26 01:47:04;;;;;;;3.92;2.85;;;14.30;59.50;;;;;;5093328;28;20054;-79
2023/03/26 01:49:30;;;;;;;3.40;2.70;;;14.30;60.10;;;;;;5093131;28;20070;-79
2023/03/26 01:51:57;;;;;;;3.13;2.83;;;14.30;59.60;;;;;;5093082;28;20028;-79
2023/03/26 01:54:27;;;;;;;4.68;3.28;;;14.30;59.70;;;;;;5093343;28;20485;-79
2023/03/26 01:57:15;;;;;;;4.38;2.90;;;14.30;59.80;;;;;;5093197;28;20029;-80
2023/03/26 01:59:50;;;;;;;2.90;2.60;;;14.30;60.00;;;;;;5081883;28;20089;-80
2023/03/26 02:02:40;;;;;;;3.90;2.70;;;14.20;60.00;;;;;;5074529;28;20028;-79
2023/03/26 02:05:25;;;;;;;3.03;2.72;;;14.20;60.00;;;;;;5093179;28;20039;-77
2023/03/26 02:08:15;;;;;;;3.20;2.90;;;14.20;60.30;;;;;;5092967;28;20032;-80
2023/03/26 02:10:47;;;;;;;3.10;2.80;;;14.20;60.30;;;;;;5092780;28;20024;-80
2023/03/26 02:13:13;;;;;;;2.80;2.60;;;14.20;60.20;;;;;;5093228;28;20034;-80
2023/03/26 02:15:39;;;;;;;2.72;2.40;;;14.20;60.20;;;;;;5093051;28;20032;-79
2023/03/26 02:18:09;;;;;;;2.92;2.47;;;14.20;60.30;;;;;;5092259;28;20024;-80
2023/03/26 02:20:35;;;;;;;3.08;2.58;;;14.20;60.30;;;;;;5092534;28;20081;-80
2023/03/26 02:23:01;;;;;;;3.25;2.47;;;14.20;60.50;;;;;;5092605;28;20048;-80
2023/03/26 02:25:27;;;;;;;2.60;2.40;;;14.20;60.50;;;;;;5092889;28;20059;-79
2023/03/26 02:27:52;;;;;;;3.03;2.75;;;14.20;60.50;;;;;;5092957;28;20114;-80
2023/03/26 02:30:24;;;;;;;3.08;2.78;;;14.20;60.60;;;;;;5092486;28;20043;-80
2023/03/26 02:32:51;;;;;;;2.85;2.50;;;14.20;60.70;;;;;;5092711;28;20052;-80
2023/03/26 02:35:16;;;;;;;2.70;2.40;;;14.20;60.80;;;;;;5074259;28;20056;-79
2023/03/26 02:37:45;;;;;;;3.58;2.58;;;14.20;60.80;;;;;;5092396;28;20028;-79
2023/03/26 02:40:12;;;;;;;2.75;2.50;;;14.10;60.90;;;;;;5090984;28;20044;-79
2023/03/26 02:42:38;;;;;;;2.60;2.40;;;14.10;60.90;;;;;;5092302;28;20039;-79
2023/03/26 02:45:06;;;;;;;3.03;2.72;;;14.10;61.00;;;;;;5092342;28;20024;-79
2023/03/26 02:47:32;;;;;;;2.92;2.63;;;14.10;61.00;;;;;;5092488;28;20032;-79
2023/03/26 02:49:58;;;;;;;2.85;2.63;;;14.10;61.00;;;;;;5092396;28;20114;-80
2023/03/26 02:52:24;;;;;;;3.30;2.58;;;14.10;61.10;;;;;;5074075;28;20105;-79
2023/03/26 02:54:49;;;;;;;2.78;2.50;;;14.10;61.10;;;;;;5092682;28;20457;-79
2023/03/26 02:57:15;;;;;;;2.50;2.30;;;14.10;61.10;;;;;;5092363;28;20028;-80
2023/03/26 02:59:41;;;;;;;3.25;2.50;;;14.10;61.20;;;;;;5074124;28;20469;-79
2023/03/26 03:02:07;;;;;;;2.90;2.45;;;14.10;61.20;;;;;;5092404;28;20028;-79
2023/03/26 03:04:32;;;;;;;2.53;2.33;;;14.10;61.30;;;;;;5092121;28;20469;-79
2023/03/26 03:06:58;;;;;;;2.33;2.13;;;14.10;61.40;;;;;;5092099;28;20031;-78
2023/03/26 03:09:24;;;;;;;3.15;2.40;;;14.10;61.40;;;;;;5092545;28;20039;-78
2023/03/26 03:11:53;;;;;;;2.47;2.28;;;14.10;61.40;;;;;;5092155;28;20461;-79
2023/03/26 03:14:19;;;;;;;3.28;2.35;;;14.10;61.40;;;;;;5092355;28;20032;-78
2023/03/26 03:16:45;;;;;;;2.30;2.10;;;14.10;61.50;;;;;;5092226;28;20105;-79
2023/03/26 03:19:11;;;;;;;2.20;2.00;;;14.20;61.60;;;;;;5091793;28;20442;-79
2023/03/26 03:21:37;;;;;;;2.40;2.20;;;14.10;61.50;;;;;;5092233;28;20056;-79
2023/03/26 03:24:02;;;;;;;2.58;2.20;;;14.20;61.60;;;;;;5092377;28;20212;-78
2023/03/26 03:26:28;;;;;;;3.20;2.40;;;14.10;61.60;;;;;;5092000;28;20052;-79
2023/03/26 03:28:56;;;;;;;2.47;2.28;;;14.10;61.60;;;;;;5092002;28;20485;-79
2023/03/26 03:31:27;;;;;;;2.58;2.38;;;14.10;61.70;;;;;;5093596;28;20478;-79
2023/03/26 03:33:52;;;;;;;2.55;2.35;;;14.10;61.70;;;;;;5096012;28;20059;-79
2023/03/26 03:36:26;;;;;;;2.40;2.20;;;14.10;61.80;;;;;;5095421;28;20052;-79
2023/03/26 03:38:53;;;;;;;2.33;2.13;;;14.10;61.80;;;;;;5095495;28;20052;-79
2023/03/26 03:41:19;;;;;;;2.50;2.30;;;14.10;61.80;;;;;;5095913;28;20096;-79
2023/03/26 03:43:45;;;;;;;2.55;2.33;;;14.10;61.90;;;;;;5095738;28;20477;-80
2023/03/26 03:46:10;;;;;;;2.60;2.40;;;14.10;61.90;;;;;;5096113;28;20031;-80
2023/03/26 03:48:39;;;;;;;2.30;2.10;;;14.10;61.90;;;;;;5095505;28;20052;-80
2023/03/26 03:51:05;;;;;;;2.35;2.15;;;14.10;62.00;;;;;;5095372;28;20067;-79
2023/03/26 03:53:35;;;;;;;2.47;2.28;;;14.10;62.00;;;;;;5095169;28;20394;-79
2023/03/26 03:56:01;;;;;;;2.40;2.20;;;14.10;62.00;;;;;;5095360;28;20077;-79
2023/03/26 03:58:29;;;;;;;2.60;2.40;;;14.10;62.10;;;;;;5095103;28;20035;-81
2023/03/26 04:00:59;;;;;;;2.42;2.22;;;14.10;62.20;;;;;;5087804;28;20047;-80
2023/03/26 04:03:26;;;;;;;2.33;2.13;;;14.10;62.20;;;;;;5074964;28;20109;-79
2023/03/26 04:05:53;;;;;;;2.38;2.17;;;14.10;62.20;;;;;;5075023;28;20040;-79
2023/03/26 04:08:20;;;;;;;2.45;2.25;;;14.10;62.30;;;;;;5074968;28;20029;-79
2023/03/26 04:10:46;;;;;;;2.45;2.25;;;14.00;62.30;;;;;;5056872;28;20116;-80
2023/03/26 04:13:13;;;;;;;3.45;2.60;;;14.00;62.30;;;;;;5074939;28;20107;-78
2023/03/26 04:15:39;;;;;;;2.83;2.53;;;14.00;62.40;;;;;;5075166;28;20103;-79
2023/03/26 04:18:09;;;;;;;2.40;2.20;;;14.00;62.40;;;;;;5074799;28;20100;-79
2023/03/26 04:20:37;;;;;;;2.60;2.40;;;14.00;62.50;;;;;;5074868;28;20032;-79
2023/03/26 04:23:03;;;;;;;2.35;2.15;;;14.10;62.60;;;;;;5056757;28;20033;-78
2023/03/26 04:25:32;;;;;;;3.15;2.80;;;14.10;62.60;;;;;;5074390;28;20028;-77
2023/03/26 04:28:05;;;;;;;2.67;2.45;;;14.00;62.60;;;;;;5074656;28;20029;-78
2023/03/26 04:30:33;;;;;;;2.40;2.20;;;14.10;62.70;;;;;;5056819;28;20502;-78
2023/03/26 04:33:05;;;;;;;2.40;2.20;;;14.00;62.60;;;;;;5074673;28;20033;-79
2023/03/26 04:35:33;;;;;;;2.80;2.60;;;14.00;62.70;;;;;;5073953;28;20135;-79
2023/03/26 04:38:05;;;;;;;2.80;2.42;;;14.00;62.70;;;;;;5074835;28;20056;-79
2023/03/26 04:40:33;;;;;;;2.90;2.60;;;14.00;62.80;;;;;;5074294;28;20421;-79
2023/03/26 04:43:01;;;;;;;2.75;2.55;;;14.10;62.80;;;;;;5074194;28;20028;-79
2023/03/26 04:45:29;;;;;;;3.17;2.10;;;14.00;62.80;;;;;;5074368;28;20078;-79
2023/03/26 04:47:56;;;;;;;3.05;2.60;;;14.00;62.80;;;;;;5074312;28;20420;-79
2023/03/26 04:50:23;;;;;;;2.60;2.40;;;14.00;62.90;;;;;;5074422;28;20060;-80
2023/03/26 04:52:49;;;;;;;3.00;2.70;;;14.00;62.90;;;;;;5074224;28;20169;-79
2023/03/26 04:55:38;;;;;;;2.65;2.45;;;14.00;63.00;;;;;;5074559;28;20020;-79
2023/03/26 04:58:04;;;;;;;3.00;2.60;;;14.10;63.10;;;;;;5074674;28;20032;-80
2023/03/26 05:00:30;;;;;;;3.17;2.80;;;14.10;63.10;;;;;;5074114;28;20028;-78
2023/03/26 05:02:58;;;;;;;3.28;2.65;;;14.10;63.10;;;;;;5073921;28;20501;-79
2023/03/26 05:05:25;;;;;;;3.08;2.60;;;14.10;63.10;;;;;;5056296;28;20107;-77
2023/03/26 05:07:50;;;;;;;3.08;2.63;;;14.10;63.10;;;;;;5074539;28;20373;-79
2023/03/26 05:10:19;;;;;;;2.90;2.70;;;14.10;63.20;;;;;;5074364;28;20028;-78
2023/03/26 05:12:45;;;;;;;3.30;2.75;;;14.10;63.20;;;;;;5073621;28;20415;-78
2023/03/26 05:15:11;;;;;;;3.17;2.78;;;14.10;63.20;;;;;;5073630;28;20031;-80
2023/03/26 05:17:40;;;;;;;3.38;3.08;;;14.20;63.30;;;;;;5055891;28;20378;-80
2023/03/26 05:20:27;;;;;;;2.60;2.40;;;14.20;63.30;;;;;;5073664;28;20064;-79
2023/03/26 05:22:53;;;;;;;3.00;2.65;;;14.20;63.20;;;;;;5072664;28;20134;-79
2023/03/26 05:25:19;;;;;;;2.97;2.72;;;14.30;63.30;;;;;;5074138;28;20059;-79
2023/03/26 05:27:45;;;;;;;2.60;2.38;;;14.30;63.30;;;;;;5073558;28;20035;-78
2023/03/26 05:30:16;;;;;;;4.18;3.00;;;14.40;63.30;;;;;;5074256;28;20347;-79
2023/03/26 05:32:42;;;;;;;3.10;2.80;;;14.40;63.30;;;;;;5073993;28;20103;-79
2023/03/26 05:35:08;;;;;;;3.78;3.00;;;14.40;63.30;;;;;;5046219;28;20521;-80
2023/03/26 05:37:36;;;;;;;3.17;2.75;;;14.50;63.30;;;;;;5082930;28;20027;-80
2023/03/26 05:40:02;;;;;;;3.85;3.30;;;14.50;63.20;;;;;;5083562;28;20024;-78
2023/03/26 05:42:28;;;;;;;3.90;3.08;;;14.50;63.20;;;;;;5081958;28;20017;-79
2023/03/26 05:44:54;;;;;;;3.28;2.97;;;14.50;63.20;;;;;;5083921;28;20035;-79
2023/03/26 05:48:12;;;;;;;3.78;3.05;;;14.50;63.20;;;;;;5082645;28;20031;-79
2023/03/26 05:50:38;;;;;;;3.05;2.75;;;14.50;63.50;;;;;;5084195;28;20086;-80
2023/03/26 05:53:03;;;;;;;3.22;2.80;;;14.60;63.30;;;;;;5082903;28;20384;-78
2023/03/26 05:55:32;;;;;;;4.65;3.13;;;14.60;63.30;;;;;;5079201;28;20031;-80
2023/03/26 05:58:02;;;;;;;4.05;3.17;;;14.50;63.30;;;;;;5068456;28;20036;-79
2023/03/26 06:00:29;;;;;;;3.60;3.08;;;14.60;63.40;;;;;;5072326;28;20124;-79
2023/03/26 06:02:55;;;;;;;3.25;2.95;;;14.60;63.50;;;;;;5079680;28;20502;-80
2023/03/26 06:05:21;;;;;;;3.38;2.90;;;14.60;63.50;;;;;;5067147;28;20059;-79
2023/03/26 06:07:47;;;;;;;3.70;2.90;;;14.60;63.50;;;;;;5074723;28;20055;-80
2023/03/26 06:10:19;;;;;;;3.63;3.25;;;14.60;63.60;;;;;;5093358;28;20036;-81
2023/03/26 06:12:50;;;;;;;4.00;3.30;;;14.60;63.60;;;;;;5089385;28;20035;-79
2023/03/26 06:15:16;;;;;;;3.92;3.33;;;14.60;63.70;;;;;;5083089;28;20032;-80
2023/03/26 06:17:41;;;;;;;3.58;3.25;;;14.60;63.70;;;;;;5084339;28;20028;-78
2023/03/26 06:20:08;;;;;;;3.80;3.10;;;14.60;63.80;;;;;;5073042;28;20056;-82
2023/03/26 06:22:34;;;;;;;3.70;3.20;;;14.60;63.80;;;;;;5072522;28;20025;-79
2023/03/26 06:24:59;;;;;;;3.42;3.00;;;14.60;63.90;;;;;;5087419;28;20053;-73
2023/03/26 06:27:25;;;;;;;3.90;3.40;;;14.70;64.00;;;;;;5074067;28;20454;-82
2023/03/26 06:29:51;;;;;;;3.50;3.10;;;14.70;64.00;;;;;;5081087;28;20033;-78
2023/03/26 06:32:17;;;;;;;5.95;3.50;;;14.70;64.60;;;;;;5092796;28;20108;-78
2023/03/26 06:34:43;;;;;;;4.70;3.25;;;14.70;64.10;;;;;;5097227;28;20052;-80
2023/03/26 06:37:08;;;;;;;3.42;3.00;;;14.80;64.20;;;;;;5113056;28;20260;-77
2023/03/26 06:39:34;;;;;;;4.07;3.40;;;14.80;64.20;;;;;;5113104;28;20027;-82
2023/03/26 06:42:00;;;;;;;3.35;3.00;;;14.90;64.20;;;;;;5094866;28;20027;-78
2023/03/26 06:44:25;;;;;;;3.83;3.08;;;14.90;64.10;;;;;;5113548;28;20024;-77
2023/03/26 06:46:51;;;;;;;3.85;3.17;;;14.90;64.10;;;;;;5113899;28;20038;-80
2023/03/26 06:49:17;;;;;;;4.65;3.35;;;14.90;64.00;;;;;;5092822;28;20028;-80
2023/03/26 06:51:43;;;;;;;3.88;3.40;;;15.00;64.10;;;;;;5112806;28;20035;-79
2023/03/26 06:54:09;;;;;;;3.95;3.45;;;14.90;64.10;;;;;;5094605;28;20079;-80
2023/03/26 06:56:34;;;;;;;3.60;3.28;;;15.00;64.20;;;;;;5112794;28;20430;-78
2023/03/26 06:59:00;;;;;;;4.45;3.50;;;15.00;64.20;;;;;;5113062;28;20026;-79
2023/03/26 07:01:26;;;;;;;3.90;3.47;;;15.00;64.20;;;;;;5113152;28;20069;-79
2023/03/26 07:03:51;;;;;;;3.60;2.97;;;15.00;64.20;;;;;;5112231;28;20083;-79
2023/03/26 07:06:17;;;;;;;3.80;3.38;;;15.10;64.20;;;;;;5098808;28;20039;-79
2023/03/26 07:08:43;;;;;;;4.55;3.40;;;15.10;64.20;;;;;;5117007;28;20028;-79
2023/03/26 07:11:09;;;;;;;4.35;3.58;;;15.10;64.20;;;;;;5098405;28;20032;-79
2023/03/26 07:13:36;;;;;;;4.63;3.33;;;15.10;64.20;;;;;;5116872;28;20355;-79
2023/03/26 07:16:02;;;;;;;3.63;3.13;;;15.10;64.20;;;;;;5117064;28;20442;-79
2023/03/26 07:18:27;;;;;;;3.33;2.85;;;15.20;64.20;;;;;;5116590;28;20047;-80
2023/03/26 07:20:53;;;;;;;3.28;2.90;;;15.10;64.20;;;;;;5098296;28;20337;-79
2023/03/26 07:23:20;;;;;;;3.80;3.25;;;15.20;64.20;;;;;;5098616;28;20488;-78
2023/03/26 07:25:47;;;;;;;3.40;3.03;;;15.20;64.20;;;;;;5116972;28;20476;-81
2023/03/26 07:28:19;;;;;;;3.63;3.03;;;15.30;64.10;;;;;;5116238;28;20461;-78
2023/03/26 07:30:51;;;;;;;4.28;3.28;;;15.30;64.10;;;;;;5098309;28;20031;-78
2023/03/26 07:33:44;;;;;;;3.90;3.25;;;15.40;64.20;;;;;;5098180;28;20432;-79
2023/03/26 07:36:16;;;;;;;3.90;3.20;;;15.40;64.20;;;;;;5116170;28;20052;-81
2023/03/26 07:39:01;;;;;;;4.28;3.10;;;15.40;64.10;;;;;;5116416;28;20104;-80
2023/03/26 07:41:41;;;;;;;3.55;2.97;;;15.40;64.10;;;;;;5097956;28;20067;-81
2023/03/26 07:44:26;;;;;;;3.47;3.10;;;15.40;64.20;;;;;;5097823;28;20034;-82
2023/03/26 07:46:53;;;;;;;3.67;3.10;;;15.50;64.10;;;;;;5117189;28;20027;-80
2023/03/26 07:49:19;;;;;;;3.55;3.20;;;15.50;64.10;;;;;;5116304;28;20024;-78
2023/03/26 07:51:46;;;;;;;4.18;3.38;;;15.50;64.10;;;;;;5116589;28;20015;-78
2023/03/26 07:54:11;;;;;;;3.72;3.03;;;15.50;64.00;;;;;;5116608;28;20016;-79
2023/03/26 07:56:54;;;;;;;2.90;2.63;;;15.60;64.10;;;;;;5098254;28;20027;-79
2023/03/26 07:59:32;;;;;;;3.50;2.90;;;15.60;64.10;;;;;;5117322;28;20145;-78
2023/03/26 08:02:20;;;;;;;3.70;3.22;;;15.70;64.10;;;;;;5117325;28;20059;-78
2023/03/26 08:05:09;;;;;;;3.40;2.90;;;15.70;64.10;;;;;;5098524;28;20136;-80
2023/03/26 08:07:49;;;;;;;3.00;2.70;;;15.70;63.80;;;;;;5117073;28;20039;-78
2023/03/26 08:10:40;;;;;;;2.75;2.50;;;15.70;63.70;;;;;;5116735;28;20027;-79
2023/03/26 08:13:15;;;;;;;2.47;2.28;;;15.70;63.70;;;;;;5098270;28;20067;-77
2023/03/26 08:16:26;;;;;;;2.50;2.30;;;15.70;63.70;;;;;;5116199;28;20441;-80
2023/03/26 08:19:29;;;;;;;2.00;1.88;;;15.70;63.70;;;;;;5096587;28;20036;-79
2023/03/26 08:22:01;;;;;;;1.90;1.80;;;15.80;63.50;;;;;;5117071;28;20150;-79
2023/03/26 08:24:45;;;;;;;2.10;1.90;;;15.90;63.30;;;;;;5098537;28;20020;-80
2023/03/26 08:27:20;;;;;;;2.00;1.90;;;16.00;63.30;;;;;;5116590;28;20397;-80
2023/03/26 08:30:21;;;;;;;1.63;1.52;;;16.10;63.10;;;;;;5116239;28;20036;-80
2023/03/26 08:33:10;;;;;;;1.75;1.60;;;16.10;62.90;;;;;;5097883;28;20178;-80
2023/03/26 08:35:41;;;;;;;2.20;2.00;;;16.10;62.60;;;;;;5095789;28;20080;-79
2023/03/26 08:38:08;;;;;;;1.40;1.33;;;16.10;62.50;;;;;;5077774;28;20020;-79
2023/03/26 08:40:55;;;;;;;1.77;1.67;;;16.10;62.40;;;;;;5095693;28;20050;-79
2023/03/26 08:43:46;;;;;;;1.60;1.50;;;16.10;62.30;;;;;;5095610;28;20099;-79
2023/03/26 08:46:30;;;;;;;1.60;1.50;;;16.10;62.30;;;;;;5077064;28;20465;-78
2023/03/26 08:49:02;;;;;;;1.67;1.58;;;16.10;62.30;;;;;;5095570;28;20055;-79
2023/03/26 08:51:43;;;;;;;1.38;1.30;;;16.20;62.30;;;;;;5076624;28;20546;-78
2023/03/26 08:54:20;;;;;;;1.38;1.27;;;16.20;62.20;;;;;;5094845;28;20079;-79
2023/03/26 08:56:51;;;;;;;1.40;1.30;;;16.30;62.10;;;;;;5076227;28;20024;-79
2023/03/26 08:59:50;;;;;;;1.50;1.40;;;16.40;61.90;;;;;;5094291;28;20016;-79
2023/03/26 09:02:21;;;;;;;1.58;1.48;;;16.50;61.80;;;;;;5094407;28;20032;-79
2023/03/26 09:05:02;;;;;;;1.13;1.13;;;16.50;61.50;;;;;;5093916;28;20166;-76
2023/03/26 09:07:52;;;;;;;1.20;1.20;;;16.60;61.20;;;;;;5093956;28;20024;-79
2023/03/26 09:10:26;;;;;;;0.88;0.88;;;16.70;60.90;;;;;;5094400;28;20027;-78
2023/03/26 09:13:29;;;;;;;1.20;1.20;;;16.70;60.80;;;;;;5094386;28;20024;-78
2023/03/26 09:16:28;;;;;;;1.35;1.25;;;16.70;61.10;;;;;;5093994;28;20444;-78
2023/03/26 09:19:12;;;;;;;1.08;1.08;;;16.70;60.30;;;;;;5094176;28;20028;-79
2023/03/26 09:22:11;;;;;;;0.93;0.93;;;16.80;60.30;;;;;;5093804;28;20039;-79
2023/03/26 09:25:21;;;;;;;1.10;1.10;;;16.90;60.70;;;;;;5078602;28;20447;-78
2023/03/26 09:28:19;;;;;;;1.10;1.10;;;16.90;59.90;;;;;;5068113;28;20097;-78
2023/03/26 09:30:54;;;;;;;0.90;0.90;;;16.90;59.80;;;;;;5094699;28;20031;-78
2023/03/26 09:33:26;;;;;;;0.90;0.90;;;17.00;59.80;;;;;;5091872;28;20036;-81
2023/03/26 09:36:19;;;;;;;1.10;1.10;;;17.00;59.80;;;;;;5092994;28;20083;-79
2023/03/26 09:38:53;;;;;;;1.20;1.17;;;17.00;59.50;;;;;;5079259;28;20131;-81
2023/03/26 09:41:41;;;;;;;1.13;1.05;;;17.10;59.70;;;;;;5092238;28;20065;-78
2023/03/26 09:44:27;;;;;;;1.15;1.08;;;17.10;59.40;;;;;;5113541;28;20039;-78
2023/03/26 09:47:22;;;;;;;1.58;1.48;;;17.20;59.40;;;;;;5113715;28;20023;-79
2023/03/26 09:50:16;;;;;;;1.42;1.33;;;17.20;59.20;;;;;;5089466;28;20035;-75
2023/03/26 09:53:26;;;;;;;0.90;0.90;;;17.20;59.20;;;;;;5105186;28;20042;-78
2023/03/26 09:56:25;;;;;;;0.93;0.93;;;17.20;59.00;;;;;;5104901;28;20526;-78
2023/03/26 09:59:17;;;;;;;0.90;0.90;;;17.30;59.00;;;;;;5051695;28;20040;-79
2023/03/26 10:01:55;;;;;;;1.10;1.10;;;17.30;59.00;;;;;;5075019;28;20101;-76
2023/03/26 10:04:50;;;;;;;1.40;1.30;;;17.30;58.80;;;;;;5075017;28;20024;-77
2023/03/26 10:07:45;;;;;;;1.35;1.25;;;17.40;58.50;;;;;;5093203;28;20024;-77
2023/03/26 10:10:32;;;;;;;1.40;1.30;;;17.50;58.30;;;;;;5075093;28;20122;-77
2023/03/26 10:13:03;;;;;;;1.45;1.30;;;17.50;58.30;;;;;;5096140;28;20035;-86
2023/03/26 10:15:51;;;;;;;1.30;1.20;;;17.40;58.20;;;;;;5107789;28;20031;-75
2023/03/26 10:18:35;;;;;;;1.40;1.30;;;17.50;57.50;;;;;;5112890;28;20059;-83
2023/03/26 10:21:00;;;;;;;1.65;1.55;;;17.50;57.80;;;;;;5112559;28;20512;-82
2023/03/26 10:23:56;;;;;;;1.50;1.40;;;17.50;58.00;;;;;;5112817;28;20035;-81
2023/03/26 10:26:36;;;;;;;2.53;1.35;;;17.50;57.70;;;;;;5093705;28;20047;-83
2023/03/26 10:29:11;;;;;;;1.80;1.48;;;17.50;57.70;;;;;;5094789;28;20027;-75
2023/03/26 10:31:51;;;;;;;1.95;1.60;;;17.60;57.80;;;;;;5089950;28;20389;-81
2023/03/26 10:34:58;;;;;;;2.03;1.80;;;17.60;57.80;;;;;;5104950;28;20042;-83
2023/03/26 10:37:43;;;;;;;1.80;1.70;;;17.60;57.40;;;;;;5029762;28;20048;-79
2023/03/26 10:40:19;;;;;;;1.67;1.58;;;17.60;57.50;;;;;;5080986;28;20055;-84
2023/03/26 10:43:04;;;;;;;1.67;1.58;;;17.70;57.40;;;;;;5062289;28;20059;-85
2023/03/26 10:46:14;;;;;;;1.35;1.33;;;17.60;57.30;;;;;;5053111;28;20405;-85
2023/03/26 10:48:59;;;;;;;1.70;1.60;;;17.60;56.80;;;;;;4988403;28;20036;-87
2023/03/26 10:51:49;;;;;;;1.80;1.70;;;17.60;57.20;;;;;;4990210;28;20476;-80
2023/03/26 10:54:43;;;;;;;1.42;1.33;;;17.60;57.10;;;;;;5055452;28;20044;-79
2023/03/26 10:57:47;;;;;;;1.60;1.50;;;17.50;57.00;;;;;;5071615;28;20097;-81
2023/03/26 11:00:23;;;;;;;1.05;1.05;;;17.50;56.90;;;;;;5053766;28;20072;-83
2023/03/26 11:03:15;;;;;;;1.40;1.30;;;17.50;57.10;;;;;;5074833;28;20035;-76
2023/03/26 11:06:06;;;;;;;1.60;1.50;;;17.40;56.80;;;;;;5092526;28;20028;-80
2023/03/26 11:08:34;;;;;;;1.40;1.30;;;17.40;56.80;;;;;;5091304;28;20054;-80
2023/03/26 11:11:23;;;;;;;1.40;1.30;;;17.30;57.00;;;;;;5073854;28;20032;-84
2023/03/26 11:14:11;;;;;;;1.75;1.65;;;17.30;56.50;;;;;;5092517;28;20105;-77
2023/03/26 11:17:15;;;;;;;1.30;1.20;;;17.30;56.90;;;;;;5074110;28;20032;-75
2023/03/26 11:19:52;;;;;;;1.25;1.15;;;17.20;56.70;;;;;;5091895;28;20035;-79
2023/03/26 11:22:29;;;;;;;1.27;1.20;;;17.20;56.90;;;;;;5091306;28;20036;-75
2023/03/26 11:25:12;;;;;;;1.33;1.23;;;17.20;56.80;;;;;;5091579;28;20024;-75
2023/03/26 11:27:56;;;;;;;1.30;1.23;;;17.30;56.80;;;;;;5092021;28;20055;-81
2023/03/26 11:30:42;;;;;;;1.25;1.20;;;17.30;56.80;;;;;;5084168;28;20494;-85
2023/03/26 11:33:17;;;;;;;1.40;1.30;;;17.40;56.60;;;;;;5074684;28;20027;-81
2023/03/26 11:35:48;;;;;;;1.30;1.20;;;17.40;56.60;;;;;;5065338;28;20063;-78
2023/03/26 11:38:32;;;;;;;1.20;1.10;;;17.50;56.60;;;;;;5091382;28;20405;-80
2023/03/26 11:41:00;;;;;;;2.42;1.30;;;17.50;56.40;;;;;;5090998;28;20043;-79
2023/03/26 11:43:33;;;;;;;1.10;1.10;;;17.50;56.40;;;;;;5092419;28;20028;-78
2023/03/26 11:46:07;;;;;;;1.52;1.33;;;17.60;56.40;;;;;;5093399;28;20077;-78
2023/03/26 11:48:39;;;;;;;1.75;1.17;;;17.60;56.90;;;;;;5075368;28;20051;-78
2023/03/26 11:51:09;;;;;;;1.17;1.17;;;17.60;56.30;;;;;;5074972;28;20392;-77
2023/03/26 11:53:38;;;;;;;1.00;1.00;;;17.60;56.10;;;;;;5078113;28;20112;-78
2023/03/26 11:56:20;;;;;;;1.15;1.13;;;17.70;56.00;;;;;;5077870;28;20424;-79
2023/03/26 11:58:53;;;;;;;1.45;1.35;;;17.70;55.70;;;;;;5078065;28;20028;-78
2023/03/26 12:01:31;;;;;;;1.30;1.30;;;17.80;55.80;;;;;;5078248;28;20101;-79
2023/03/26 12:04:04;;;;;;;1.15;1.15;;;17.90;55.70;;;;;;5096361;28;20028;-80
2023/03/26 12:06:31;;;;;;;1.35;1.27;;;17.90;55.90;;;;;;5078238;28;20466;-78
2023/03/26 12:08:57;;;;;;;1.20;1.10;;;18.10;55.50;;;;;;5078121;28;20035;-79
2023/03/26 12:11:30;;;;;;;1.10;1.10;;;18.10;55.30;;;;;;5095997;28;20143;-79
2023/03/26 12:14:03;;;;;;;1.40;1.30;;;18.20;55.10;;;;;;5096278;28;20031;-78
2023/03/26 12:16:29;;;;;;;0.98;0.93;;;18.30;55.00;;;;;;5077318;28;20035;-78
2023/03/26 12:19:21;;;;;;;1.60;1.50;;;18.30;54.90;;;;;;5095766;28;20058;-79
2023/03/26 12:21:51;;;;;;;1.70;1.60;;;18.30;54.60;;;;;;5095939;28;20032;-79
2023/03/26 12:24:30;;;;;;;1.70;1.60;;;18.40;54.80;;;;;;5095994;28;20060;-79
2023/03/26 12:27:20;;;;;;;1.60;1.50;;;18.30;54.60;;;;;;5077682;28;20039;-79
2023/03/26 12:30:07;;;;;;;1.42;1.33;;;18.30;55.30;;;;;;5080078;28;20089;-78
2023/03/26 12:32:38;;;;;;;1.63;1.35;;;18.30;54.40;;;;;;5096108;28;20032;-78
2023/03/26 12:35:25;;;;;;;1.40;1.30;;;18.30;54.60;;;;;;5103048;28;20446;-79
2023/03/26 12:37:52;;;;;;;1.27;1.17;;;18.30;54.50;;;;;;5097766;28;20465;-78
2023/03/26 12:40:24;;;;;;;1.60;1.48;;;18.30;54.60;;;;;;5116019;28;20035;-78
2023/03/26 12:43:06;;;;;;;1.40;1.30;;;18.30;54.50;;;;;;5116260;28;20107;-78
2023/03/26 12:45:42;;;;;;;1.50;1.40;;;18.30;54.50;;;;;;5115818;28;20022;-79
2023/03/26 12:48:14;;;;;;;1.58;1.48;;;18.30;54.40;;;;;;5097243;28;20504;-79
2023/03/26 12:50:46;;;;;;;1.70;1.60;;;18.30;54.40;;;;;;5097289;28;20035;-78
2023/03/26 12:53:33;;;;;;;1.42;1.33;;;18.20;54.30;;;;;;5115690;28;20389;-78
2023/03/26 12:56:18;;;;;;;1.33;1.23;;;18.20;54.30;;;;;;5115834;28;20126;-78
2023/03/26 12:58:50;;;;;;;1.75;1.48;;;18.10;54.30;;;;;;5080796;28;20023;-78
2023/03/26 13:01:54;;;;;;;1.42;1.33;;;18.10;54.30;;;;;;5116042;28;20050;-78
2023/03/26 13:04:43;;;;;;;1.85;1.73;;;18.10;54.30;;;;;;5076125;28;20046;-79
2023/03/26 13:07:19;;;;;;;1.50;1.40;;;17.90;54.00;;;;;;5115895;28;20020;-77
2023/03/26 13:10:17;;;;;;;2.67;1.80;;;17.80;54.30;;;;;;5115624;28;20436;-78
2023/03/26 13:12:50;;;;;;;1.05;1.05;;;17.70;54.00;;;;;;5010438;28;20039;-78
2023/03/26 13:15:44;;;;;;;1.63;1.50;;;17.70;54.50;;;;;;5096717;28;20481;-78
2023/03/26 13:18:55;;;;;;;1.23;1.20;;;17.60;54.40;;;;;;5114139;28;20036;-78
2023/03/26 13:22:00;;;;;;;1.98;1.63;;;17.50;54.30;;;;;;5113933;28;20047;-79
2023/03/26 13:24:31;;;;;;;1.88;1.73;;;17.50;54.40;;;;;;5110023;28;20043;-78
2023/03/26 13:27:06;;;;;;;2.17;1.70;;;17.40;54.60;;;;;;5114819;28;20023;-78